Terminal Aerodrome Forecast
Issued by NWS

Home | Current Version | Previous Version | Text Only | Print | Product List | Glossary Off
Versions: 1 2 3 4 5 6 7 8 9 10 11 12 13 14 15 16 17 18

000
FTUS42 KMHX 202329
TAFPGV
TAF
KPGV 202329Z 2100/2124 08005KT P6SM SCT100
     FM210800 06005KT P6SM BKN025
     FM211400 13010KT P6SM VCTS SCT025 BKN050CB
     FM211800 33012KT 5SM SHRA VCTS BKN025CB
     FM212200 34011KT P6SM BKN025
      AMD LTD TO CLD VIS AND WIND=

USA.gov is the U.S. government's official web portal to all federal, state and local government web resources and services.